Time;durP1;ratioP1;P1;durP2;ratioP2;P2;SDS_P1;SDS_P2;PMS_P1;PMS_P2;Temp;Humidity;BMP_temperature;BMP_pressure;BME280_temperature;BME280_humidity;BME280_pressure;Samples;Min_cycle;Max_cycle;Signal;HPM_P1;HPM_P2
2024/01/06 00:00:27;;;;;;;4.10;3.70;;;;;;;;;;2051783;28;20038;-76
2024/01/06 00:01:47;;;;;;;5.65;3.90;;;;;;;;;;2056175;28;20450;-74
2024/01/06 00:03:06;;;;;;;5.50;3.90;;;;;;;;;;2052119;28;20030;-74
2024/01/06 00:04:25;;;;;;;3.78;3.47;;;;;;;;;;2055743;28;20388;-74
2024/01/06 00:05:44;;;;;;;4.13;3.65;;;;;;;;;;2054005;28;20035;-72
2024/01/06 00:07:03;;;;;;;4.20;3.75;;;;;;;;;;2050106;28;20028;-74
2024/01/06 00:08:22;;;;;;;5.20;4.28;;;;;;;;;;2056966;28;20133;-74
2024/01/06 00:09:41;;;;;;;4.60;3.60;;;;;;;;;;2051919;28;20532;-76
2024/01/06 00:11:02;;;;;;;5.30;4.00;;;;;;;;;;2048143;28;20438;-73
2024/01/06 00:12:21;;;;;;;3.78;3.28;;;;;;;;;;2050377;28;20434;-74
2024/01/06 00:13:40;;;;;;;3.80;3.50;;;;;;;;;;2049500;28;20039;-73
2024/01/06 00:14:59;;;;;;;5.03;3.65;;;;;;;;;;2048542;28;20059;-74
2024/01/06 00:16:19;;;;;;;4.00;3.65;;;;;;;;;;2056201;28;20034;-74
2024/01/06 00:17:38;;;;;;;4.32;3.80;;;;;;;;;;2058733;28;20031;-77
2024/01/06 00:18:59;;;;;;;3.40;3.10;;;;;;;;;;2065792;28;20022;-74
2024/01/06 00:20:18;;;;;;;4.20;3.80;;;;;;;;;;2051806;28;20034;-73
2024/01/06 00:21:37;;;;;;;6.07;4.18;;;;;;;;;;2056426;28;20114;-73
2024/01/06 00:22:58;;;;;;;3.60;3.30;;;;;;;;;;2059736;28;20400;-74
2024/01/06 00:24:17;;;;;;;4.30;3.90;;;;;;;;;;2057271;28;20034;-73
2024/01/06 00:25:37;;;;;;;4.47;4.07;;;;;;;;;;2054664;28;20058;-75
2024/01/06 00:26:56;;;;;;;4.30;3.75;;;;;;;;;;2058696;28;20042;-73
2024/01/06 00:28:15;;;;;;;4.22;3.83;;;;;;;;;;2050990;28;20031;-75
2024/01/06 00:29:34;;;;;;;4.40;4.00;;;;;;;;;;2050352;28;20027;-74
2024/01/06 00:30:53;;;;;;;4.82;4.20;;;;;;;;;;2050907;28;20520;-74
2024/01/06 00:32:12;;;;;;;4.88;4.10;;;;;;;;;;2051965;28;20071;-73
2024/01/06 00:33:31;;;;;;;4.97;3.80;;;;;;;;;;2055138;28;20468;-73
2024/01/06 00:34:50;;;;;;;4.40;4.00;;;;;;;;;;2051202;28;20035;-73
2024/01/06 00:36:09;;;;;;;5.22;3.65;;;;;;;;;;2053757;28;20039;-75
2024/01/06 00:37:28;;;;;;;3.55;3.10;;;;;;;;;;2058657;28;20685;-74
2024/01/06 00:38:47;;;;;;;4.28;3.20;;;;;;;;;;2050619;28;20023;-74
2024/01/06 00:40:06;;;;;;;4.63;3.47;;;;;;;;;;2050501;28;20035;-74
2024/01/06 00:41:25;;;;;;;4.18;3.78;;;;;;;;;;2056071;28;20055;-73
2024/01/06 00:42:44;;;;;;;4.88;3.60;;;;;;;;;;2050795;28;20032;-74
2024/01/06 00:44:03;;;;;;;4.85;4.10;;;;;;;;;;2055299;28;20113;-74
2024/01/06 00:45:22;;;;;;;5.43;3.58;;;;;;;;;;2058087;28;20030;-73
2024/01/06 00:46:41;;;;;;;3.95;3.55;;;;;;;;;;2057015;28;21135;-73
2024/01/06 00:48:00;;;;;;;4.85;3.55;;;;;;;;;;2057530;28;20018;-73
2024/01/06 00:49:19;;;;;;;3.45;3.00;;;;;;;;;;2058536;28;20503;-74
2024/01/06 00:50:38;;;;;;;4.32;3.55;;;;;;;;;;2049998;28;20102;-76
2024/01/06 00:51:57;;;;;;;5.50;3.83;;;;;;;;;;2056123;28;20035;-73
2024/01/06 00:53:15;;;;;;;4.03;3.63;;;;;;;;;;2049556;28;20032;-74
2024/01/06 00:54:34;;;;;;;5.07;4.00;;;;;;;;;;2049604;28;20023;-74
2024/01/06 00:55:53;;;;;;;3.50;3.20;;;;;;;;;;2054807;28;20721;-75
2024/01/06 00:57:12;;;;;;;4.13;3.72;;;;;;;;;;2051194;28;20027;-75
2024/01/06 00:58:34;;;;;;;4.88;3.92;;;;;;;;;;2055242;28;20042;-75
2024/01/06 00:59:54;;;;;;;4.97;3.80;;;;;;;;;;2057942;28;20046;-74
2024/01/06 01:01:13;;;;;;;4.43;3.42;;;;;;;;;;2058755;28;20510;-75
2024/01/06 01:02:32;;;;;;;3.80;3.40;;;;;;;;;;2052598;28;20059;-74
2024/01/06 01:03:51;;;;;;;4.70;3.55;;;;;;;;;;2054700;28;20030;-74
2024/01/06 01:05:10;;;;;;;4.95;3.60;;;;;;;;;;2050631;28;20504;-74
2024/01/06 01:06:29;;;;;;;5.38;4.13;;;;;;;;;;2048323;28;20023;-75
2024/01/06 01:07:47;;;;;;;4.03;3.63;;;;;;;;;;2056537;28;20085;-76
2024/01/06 01:09:06;;;;;;;3.75;3.35;;;;;;;;;;2061146;28;20018;-74
2024/01/06 01:10:25;;;;;;;3.70;3.38;;;;;;;;;;2048675;28;20023;-74
2024/01/06 01:11:44;;;;;;;5.72;3.33;;;;;;;;;;2055767;28;20030;-76
2024/01/06 01:13:03;;;;;;;5.07;4.10;;;;;;;;;;2048587;28;20023;-73
2024/01/06 01:14:22;;;;;;;3.45;3.15;;;;;;;;;;2055389;28;20030;-73
2024/01/06 01:15:41;;;;;;;4.05;3.65;;;;;;;;;;2050834;28;20035;-74
2024/01/06 01:17:00;;;;;;;3.38;3.08;;;;;;;;;;2054293;28;20030;-73
2024/01/06 01:18:20;;;;;;;4.95;3.20;;;;;;;;;;2050140;28;20516;-73
2024/01/06 01:19:39;;;;;;;4.78;3.47;;;;;;;;;;2049393;28;20059;-74
2024/01/06 01:20:58;;;;;;;3.35;2.85;;;;;;;;;;2056127;28;20031;-74
2024/01/06 01:22:17;;;;;;;4.13;3.42;;;;;;;;;;2057543;28;20035;-74
2024/01/06 01:23:36;;;;;;;3.42;3.13;;;;;;;;;;2061292;28;20026;-75
2024/01/06 01:24:55;;;;;;;4.22;2.97;;;;;;;;;;2053173;28;20031;-76
2024/01/06 01:26:14;;;;;;;4.00;3.60;;;;;;;;;;2056038;28;20479;-75
2024/01/06 01:27:33;;;;;;;3.75;3.45;;;;;;;;;;2059354;28;20034;-73
2024/01/06 01:28:52;;;;;;;5.93;3.67;;;;;;;;;;2058570;28;20023;-75
2024/01/06 01:30:13;;;;;;;3.63;3.13;;;;;;;;;;2051668;28;20176;-72
2024/01/06 01:31:33;;;;;;;4.40;3.90;;;;;;;;;;2047756;28;20035;-75
2024/01/06 01:32:52;;;;;;;3.80;3.50;;;;;;;;;;2055673;28;20050;-73
2024/01/06 01:34:11;;;;;;;3.38;3.08;;;;;;;;;;2052247;28;20034;-73
2024/01/06 01:35:30;;;;;;;4.70;2.95;;;;;;;;;;2057368;28;20035;-74
2024/01/06 01:36:49;;;;;;;3.65;3.30;;;;;;;;;;2061493;28;20037;-76
2024/01/06 01:38:09;;;;;;;3.78;3.08;;;;;;;;;;2053003;28;20039;-75
2024/01/06 01:39:28;;;;;;;4.53;3.58;;;;;;;;;;2047217;28;20055;-73
2024/01/06 01:40:47;;;;;;;3.58;3.28;;;;;;;;;;2054300;28;20063;-74
2024/01/06 01:42:06;;;;;;;3.78;3.42;;;;;;;;;;2051269;28;20028;-74
2024/01/06 01:43:26;;;;;;;3.90;3.50;;;;;;;;;;2050002;28;20035;-73
2024/01/06 01:44:44;;;;;;;3.88;3.15;;;;;;;;;;2050753;28;20062;-74
2024/01/06 01:46:03;;;;;;;5.22;3.50;;;;;;;;;;2055964;28;20399;-74
2024/01/06 01:47:23;;;;;;;4.32;3.55;;;;;;;;;;2051357;28;20027;-74
2024/01/06 01:48:42;;;;;;;4.57;3.40;;;;;;;;;;2056982;28;20038;-74
2024/01/06 01:50:02;;;;;;;3.47;3.17;;;;;;;;;;2051973;28;20035;-73
2024/01/06 01:51:22;;;;;;;3.22;3.03;;;;;;;;;;2055466;28;20094;-73
2024/01/06 01:52:42;;;;;;;3.67;3.38;;;;;;;;;;2059841;28;20034;-74
2024/01/06 01:54:03;;;;;;;5.78;3.63;;;;;;;;;;2051571;28;20035;-73
2024/01/06 01:55:22;;;;;;;3.10;2.80;;;;;;;;;;2056637;28;20031;-73
2024/01/06 01:56:45;;;;;;;3.95;3.50;;;;;;;;;;2059287;28;20030;-73
2024/01/06 01:58:05;;;;;;;4.40;3.13;;;;;;;;;;2061630;28;20023;-74
2024/01/06 01:59:24;;;;;;;3.55;3.00;;;;;;;;;;2052024;28;20031;-74
2024/01/06 02:00:42;;;;;;;5.32;3.40;;;;;;;;;;2050333;28;20524;-74
2024/01/06 02:02:02;;;;;;;4.38;3.10;;;;;;;;;;2050863;28;20516;-74
2024/01/06 02:03:21;;;;;;;3.47;3.17;;;;;;;;;;2049245;28;20034;-74
2024/01/06 02:04:41;;;;;;;3.72;3.38;;;;;;;;;;2049507;28;20034;-74
2024/01/06 02:06:00;;;;;;;3.78;3.10;;;;;;;;;;2051304;28;20028;-74
2024/01/06 02:07:19;;;;;;;2.97;2.78;;;;;;;;;;2052341;28;20031;-73
2024/01/06 02:08:38;;;;;;;4.65;2.95;;;;;;;;;;2052673;28;20027;-74
2024/01/06 02:09:57;;;;;;;4.15;3.33;;;;;;;;;;2051661;28;20027;-73
2024/01/06 02:11:16;;;;;;;3.78;3.22;;;;;;;;;;2053529;28;20035;-76
2024/01/06 02:12:35;;;;;;;5.75;3.45;;;;;;;;;;2051584;28;20054;-74
2024/01/06 02:13:54;;;;;;;4.00;3.30;;;;;;;;;;2051964;28;20027;-73
2024/01/06 02:15:13;;;;;;;3.95;3.55;;;;;;;;;;2051500;28;20034;-74
2024/01/06 02:16:32;;;;;;;3.22;2.92;;;;;;;;;;2051816;28;20031;-74
2024/01/06 02:17:51;;;;;;;3.63;3.33;;;;;;;;;;2049790;28;20043;-73
2024/01/06 02:19:13;;;;;;;4.05;3.50;;;;;;;;;;2048666;28;20523;-74
2024/01/06 02:20:35;;;;;;;2.97;2.78;;;;;;;;;;2047795;28;20027;-75
2024/01/06 02:21:55;;;;;;;3.60;3.30;;;;;;;;;;2050372;28;20027;-77
2024/01/06 02:23:14;;;;;;;4.03;3.65;;;;;;;;;;2051445;28;20035;-75
2024/01/06 02:24:33;;;;;;;3.42;3.13;;;;;;;;;;2051046;28;20023;-74
2024/01/06 02:25:52;;;;;;;3.58;3.00;;;;;;;;;;2051311;28;20121;-73
2024/01/06 02:27:11;;;;;;;4.45;3.17;;;;;;;;;;2050589;28;20019;-73
2024/01/06 02:28:30;;;;;;;4.18;3.00;;;;;;;;;;2051403;28;20035;-73
2024/01/06 02:29:49;;;;;;;3.28;2.97;;;;;;;;;;2055115;28;20039;-73
2024/01/06 02:31:08;;;;;;;3.85;3.45;;;;;;;;;;2053162;28;20035;-74
2024/01/06 02:32:27;;;;;;;5.47;3.33;;;;;;;;;;2055433;28;20023;-73
2024/01/06 02:33:45;;;;;;;5.53;3.55;;;;;;;;;;2052309;28;20437;-73
2024/01/06 02:35:04;;;;;;;3.92;3.33;;;;;;;;;;2055370;28;20122;-75
2024/01/06 02:36:23;;;;;;;4.03;3.63;;;;;;;;;;2051987;28;20689;-74
2024/01/06 02:37:42;;;;;;;3.50;3.20;;;;;;;;;;2049792;28;20059;-74
2024/01/06 02:39:02;;;;;;;4.50;3.80;;;;;;;;;;2054534;28;20043;-74
2024/01/06 02:40:21;;;;;;;3.75;3.45;;;;;;;;;;2052397;28;20058;-74
2024/01/06 02:41:41;;;;;;;3.75;3.15;;;;;;;;;;2050284;28;20364;-75
2024/01/06 02:43:00;;;;;;;4.75;3.15;;;;;;;;;;2051456;28;20031;-74
2024/01/06 02:44:19;;;;;;;3.15;2.88;;;;;;;;;;2051502;28;20373;-74
2024/01/06 02:45:38;;;;;;;3.95;3.55;;;;;;;;;;2051629;28;20027;-74
2024/01/06 02:46:57;;;;;;;3.00;2.80;;;;;;;;;;2050390;28;20024;-74
2024/01/06 02:48:16;;;;;;;7.07;3.72;;;;;;;;;;2051750;28;20031;-74
2024/01/06 02:49:36;;;;;;;3.47;3.17;;;;;;;;;;2051353;28;20039;-73
2024/01/06 02:50:54;;;;;;;4.47;2.88;;;;;;;;;;2051373;28;20035;-75
2024/01/06 02:52:13;;;;;;;4.10;3.08;;;;;;;;;;2052166;28;20031;-74
2024/01/06 02:53:32;;;;;;;3.60;3.30;;;;;;;;;;2050380;28;20434;-74
2024/01/06 02:54:53;;;;;;;3.60;3.20;;;;;;;;;;2053439;28;20034;-74
2024/01/06 02:56:12;;;;;;;3.60;3.30;;;;;;;;;;2052038;28;20050;-74
2024/01/06 02:57:31;;;;;;;5.90;3.38;;;;;;;;;;2050772;28;20039;-76
2024/01/06 02:58:50;;;;;;;3.97;3.05;;;;;;;;;;2052314;28;20050;-74
2024/01/06 03:00:10;;;;;;;3.80;3.10;;;;;;;;;;2050386;28;20455;-74
2024/01/06 03:01:29;;;;;;;3.42;3.10;;;;;;;;;;2053216;28;20497;-74
2024/01/06 03:02:48;;;;;;;3.53;3.22;;;;;;;;;;2053164;28;20031;-74
2024/01/06 03:04:08;;;;;;;3.10;2.80;;;;;;;;;;2052111;28;20039;-74
2024/01/06 03:05:27;;;;;;;3.83;3.30;;;;;;;;;;2051946;28;20066;-74
2024/01/06 03:06:51;;;;;;;3.20;2.90;;;;;;;;;;2051350;28;20031;-74
2024/01/06 03:08:10;;;;;;;3.10;2.80;;;;;;;;;;2050227;28;20027;-75
2024/01/06 03:09:32;;;;;;;2.85;2.60;;;;;;;;;;2047433;28;20052;-74
2024/01/06 03:10:51;;;;;;;2.80;1.95;;;;;;;;;;2054340;28;20030;-74
2024/01/06 03:12:10;;;;;;;2.55;2.35;;;;;;;;;;2051696;28;20416;-74
2024/01/06 03:13:29;;;;;;;3.45;3.00;;;;;;;;;;2049171;28;20024;-73
2024/01/06 03:14:51;;;;;;;3.15;2.85;;;;;;;;;;2050278;28;20023;-74
2024/01/06 03:16:11;;;;;;;3.45;2.38;;;;;;;;;;2051227;28;20102;-75
2024/01/06 03:17:30;;;;;;;2.67;2.47;;;;;;;;;;2052235;28;20031;-74
2024/01/06 03:18:49;;;;;;;3.83;2.63;;;;;;;;;;2052402;28;20516;-74
2024/01/06 03:20:09;;;;;;;3.08;2.78;;;;;;;;;;2051558;28;20412;-76
2024/01/06 03:21:28;;;;;;;3.75;2.80;;;;;;;;;;2051703;28;20039;-76
2024/01/06 03:22:47;;;;;;;2.72;2.53;;;;;;;;;;2050274;28;20019;-74
2024/01/06 03:24:07;;;;;;;3.10;2.85;;;;;;;;;;2053253;28;20024;-74
2024/01/06 03:25:27;;;;;;;3.13;2.83;;;;;;;;;;2051997;28;20030;-73
2024/01/06 03:26:46;;;;;;;3.55;2.97;;;;;;;;;;2060179;28;20023;-76
2024/01/06 03:28:05;;;;;;;3.30;3.03;;;;;;;;;;2063368;28;20031;-74
2024/01/06 03:29:24;;;;;;;3.47;2.67;;;;;;;;;;2060440;28;20129;-77
2024/01/06 03:30:44;;;;;;;3.00;2.80;;;;;;;;;;2051346;28;20027;-73
2024/01/06 03:32:03;;;;;;;3.03;2.83;;;;;;;;;;2058235;28;20028;-75
2024/01/06 03:33:21;;;;;;;3.38;3.08;;;;;;;;;;2050989;28;20045;-74
2024/01/06 03:34:40;;;;;;;3.10;2.80;;;;;;;;;;2049079;28;20027;-73
2024/01/06 03:36:03;;;;;;;3.83;3.10;;;;;;;;;;2053929;28;20051;-74
2024/01/06 03:37:22;;;;;;;3.67;3.05;;;;;;;;;;2051837;28;20490;-73
2024/01/06 03:38:41;;;;;;;3.40;2.78;;;;;;;;;;2051080;28;20058;-73
2024/01/06 03:40:01;;;;;;;4.55;2.92;;;;;;;;;;2051095;28;20023;-73
2024/01/06 03:41:20;;;;;;;2.55;2.35;;;;;;;;;;2049961;28;20027;-74
2024/01/06 03:42:39;;;;;;;4.35;2.90;;;;;;;;;;2047110;28;20102;-74
2024/01/06 03:43:58;;;;;;;4.20;2.90;;;;;;;;;;2046551;28;20484;-74
2024/01/06 03:45:17;;;;;;;3.00;2.70;;;;;;;;;;2050147;28;20039;-75
2024/01/06 03:46:37;;;;;;;3.30;3.00;;;;;;;;;;2051095;28;20481;-74
2024/01/06 03:47:56;;;;;;;2.90;2.70;;;;;;;;;;2053286;28;20034;-74
2024/01/06 03:49:18;;;;;;;4.13;3.08;;;;;;;;;;2046569;28;20019;-74
2024/01/06 03:50:37;;;;;;;3.42;2.70;;;;;;;;;;2048584;28;20031;-74
2024/01/06 03:51:56;;;;;;;2.78;2.58;;;;;;;;;;2048618;28;20053;-74
2024/01/06 03:53:15;;;;;;;3.67;2.90;;;;;;;;;;2065599;28;20026;-73
2024/01/06 03:54:35;;;;;;;3.38;3.05;;;;;;;;;;2051780;28;20023;-74
2024/01/06 03:55:54;;;;;;;3.00;2.70;;;;;;;;;;2049097;28;20035;-75
2024/01/06 03:57:13;;;;;;;4.47;2.78;;;;;;;;;;2048424;28;20043;-73
2024/01/06 03:58:32;;;;;;;3.33;3.03;;;;;;;;;;2050247;28;20034;-74
2024/01/06 03:59:51;;;;;;;3.45;3.15;;;;;;;;;;2051531;28;20137;-76
2024/01/06 04:01:10;;;;;;;4.03;2.67;;;;;;;;;;2049568;28;20034;-75
2024/01/06 04:02:29;;;;;;;2.92;2.72;;;;;;;;;;2049656;28;20512;-73
2024/01/06 04:03:48;;;;;;;3.10;2.80;;;;;;;;;;2049427;28;20042;-75
2024/01/06 04:05:07;;;;;;;3.45;3.15;;;;;;;;;;2053319;28;20054;-74
2024/01/06 04:06:26;;;;;;;3.00;2.70;;;;;;;;;;2050641;28;20050;-74
2024/01/06 04:07:45;;;;;;;5.03;3.05;;;;;;;;;;2050301;28;20031;-75
2024/01/06 04:09:05;;;;;;;8.18;2.83;;;;;;;;;;2051030;28;20036;-74
2024/01/06 04:10:24;;;;;;;3.22;2.88;;;;;;;;;;2055720;28;20039;-74
2024/01/06 04:11:43;;;;;;;2.95;2.75;;;;;;;;;;2050914;28;20039;-75
2024/01/06 04:13:02;;;;;;;3.63;2.88;;;;;;;;;;2049736;28;20027;-74
2024/01/06 04:14:21;;;;;;;5.85;2.80;;;;;;;;;;2049503;28;20039;-74
2024/01/06 04:15:40;;;;;;;4.05;2.70;;;;;;;;;;2047708;28;20125;-74
2024/01/06 04:16:59;;;;;;;3.90;3.45;;;;;;;;;;2050977;28;20035;-74
2024/01/06 04:18:18;;;;;;;2.92;2.72;;;;;;;;;;2052027;28;20396;-76
2024/01/06 04:19:37;;;;;;;3.10;2.80;;;;;;;;;;2047477;28;20150;-73
2024/01/06 04:20:56;;;;;;;3.85;3.55;;;;;;;;;;2051815;28;20026;-75
2024/01/06 04:22:15;;;;;;;3.22;2.70;;;;;;;;;;2051953;28;20408;-73
2024/01/06 04:23:34;;;;;;;2.85;2.63;;;;;;;;;;2052529;28;20098;-74
2024/01/06 04:24:53;;;;;;;2.83;2.53;;;;;;;;;;2053206;28;21794;-74
2024/01/06 04:26:13;;;;;;;3.30;3.10;;;;;;;;;;2052028;28;20039;-74
2024/01/06 04:27:33;;;;;;;2.78;2.58;;;;;;;;;;2051018;28;20110;-74
2024/01/06 04:28:52;;;;;;;2.90;2.50;;;;;;;;;;2046739;28;20526;-74
2024/01/06 04:30:11;;;;;;;3.30;3.00;;;;;;;;;;2049754;28;20146;-74
2024/01/06 04:31:30;;;;;;;2.80;2.60;;;;;;;;;;2048012;28;20032;-74
2024/01/06 04:32:50;;;;;;;3.10;2.80;;;;;;;;;;2049735;28;20043;-74
2024/01/06 04:34:08;;;;;;;3.40;2.65;;;;;;;;;;2052185;28;20024;-74
2024/01/06 04:35:27;;;;;;;2.55;2.35;;;;;;;;;;2051296;28;20492;-74
2024/01/06 04:36:46;;;;;;;3.47;2.80;;;;;;;;;;2052092;28;20039;-74
2024/01/06 04:38:06;;;;;;;2.67;2.47;;;;;;;;;;2051411;28;20031;-74
2024/01/06 04:39:25;;;;;;;3.17;2.88;;;;;;;;;;2050481;28;20032;-74
2024/01/06 04:40:44;;;;;;;5.47;3.15;;;;;;;;;;2050422;28;20027;-75
2024/01/06 04:42:04;;;;;;;3.38;3.00;;;;;;;;;;2054964;28;20031;-73
2024/01/06 04:43:23;;;;;;;2.97;2.78;;;;;;;;;;2056139;28;20027;-74
2024/01/06 04:44:42;;;;;;;4.50;3.00;;;;;;;;;;2056800;28;20031;-74
2024/01/06 04:46:02;;;;;;;2.70;2.50;;;;;;;;;;2053051;28;20118;-74
2024/01/06 04:47:21;;;;;;;4.32;2.85;;;;;;;;;;2053300;28;20035;-74
2024/01/06 04:48:40;;;;;;;4.28;2.83;;;;;;;;;;2053441;28;20031;-77
2024/01/06 04:50:00;;;;;;;3.65;2.63;;;;;;;;;;2051405;28;20038;-74
2024/01/06 04:51:19;;;;;;;3.05;2.83;;;;;;;;;;2054005;28;20031;-74
2024/01/06 04:52:38;;;;;;;3.20;3.00;;;;;;;;;;2053416;28;20535;-74
2024/01/06 04:53:57;;;;;;;3.22;3.00;;;;;;;;;;2050422;28;20031;-76
2024/01/06 04:55:16;;;;;;;3.85;3.08;;;;;;;;;;2049878;28;20488;-74
2024/01/06 04:56:35;;;;;;;2.97;2.70;;;;;;;;;;2051927;28;20118;-74
2024/01/06 04:57:54;;;;;;;2.78;2.58;;;;;;;;;;2049621;28;20027;-74
2024/01/06 04:59:13;;;;;;;3.72;2.72;;;;;;;;;;2055278;28;20561;-76
2024/01/06 05:00:35;;;;;;;3.72;3.00;;;;;;;;;;2058773;28;20027;-74
2024/01/06 05:01:54;;;;;;;2.40;2.25;;;;;;;;;;2051092;28;20028;-74
2024/01/06 05:03:13;;;;;;;3.33;3.08;;;;;;;;;;2056639;28;20038;-73
2024/01/06 05:04:32;;;;;;;3.20;2.75;;;;;;;;;;2059169;28;20027;-73
2024/01/06 05:05:51;;;;;;;4.32;2.80;;;;;;;;;;2059254;28;20030;-73
2024/01/06 05:07:13;;;;;;;3.30;3.00;;;;;;;;;;2051468;28;20032;-73
2024/01/06 05:08:32;;;;;;;4.00;2.92;;;;;;;;;;2052226;28;20564;-74
2024/01/06 05:09:51;;;;;;;2.75;2.55;;;;;;;;;;2059152;28;20046;-74
2024/01/06 05:11:10;;;;;;;3.67;2.95;;;;;;;;;;2051792;28;20059;-74
2024/01/06 05:12:30;;;;;;;3.20;2.88;;;;;;;;;;2056802;28;20062;-75
2024/01/06 05:13:50;;;;;;;3.60;2.90;;;;;;;;;;2056704;28;20040;-75
2024/01/06 05:15:09;;;;;;;3.50;2.88;;;;;;;;;;2057613;28;20023;-74
2024/01/06 05:16:29;;;;;;;3.05;2.85;;;;;;;;;;2053491;28;20114;-74
2024/01/06 05:17:48;;;;;;;3.08;2.78;;;;;;;;;;2056927;28;20118;-74
2024/01/06 05:19:07;;;;;;;6.20;2.90;;;;;;;;;;2061240;28;20046;-74
2024/01/06 05:20:25;;;;;;;3.30;2.90;;;;;;;;;;2059988;28;20073;-74
2024/01/06 05:21:44;;;;;;;2.55;2.33;;;;;;;;;;2051485;28;20035;-74
2024/01/06 05:23:03;;;;;;;2.60;2.30;;;;;;;;;;2051486;28;20516;-74
2024/01/06 05:24:22;;;;;;;2.65;2.42;;;;;;;;;;2048898;28;20106;-74
2024/01/06 05:25:41;;;;;;;2.90;2.70;;;;;;;;;;2056646;28;20030;-74
2024/01/06 05:27:00;;;;;;;2.88;2.67;;;;;;;;;;2053271;28;20434;-74
2024/01/06 05:28:20;;;;;;;3.05;2.85;;;;;;;;;;2055106;28;20039;-73
2024/01/06 05:29:39;;;;;;;3.47;2.90;;;;;;;;;;2060713;28;20404;-76
2024/01/06 05:30:58;;;;;;;4.22;2.80;;;;;;;;;;2052371;28;20038;-75
2024/01/06 05:32:17;;;;;;;3.10;2.80;;;;;;;;;;2058796;28;20038;-74
2024/01/06 05:33:36;;;;;;;3.60;2.50;;;;;;;;;;2055332;28;20031;-75
2024/01/06 05:34:55;;;;;;;4.57;2.92;;;;;;;;;;2056831;28;20042;-74
2024/01/06 05:36:18;;;;;;;3.15;2.85;;;;;;;;;;2062460;28;20392;-74
2024/01/06 05:37:37;;;;;;;3.75;2.55;;;;;;;;;;2053143;28;20419;-74
2024/01/06 05:38:56;;;;;;;3.20;2.90;;;;;;;;;;2048924;28;20044;-75
2024/01/06 05:40:15;;;;;;;4.10;2.88;;;;;;;;;;2052584;28;20527;-72
2024/01/06 05:41:39;;;;;;;3.35;2.53;;;;;;;;;;2050540;28;20500;-73
2024/01/06 05:42:58;;;;;;;3.85;2.90;;;;;;;;;;2048379;28;20121;-74
2024/01/06 05:44:16;;;;;;;2.80;2.45;;;;;;;;;;2046828;28;20428;-73
2024/01/06 05:45:37;;;;;;;3.20;2.90;;;;;;;;;;2048491;28;20044;-72
2024/01/06 05:46:56;;;;;;;2.60;2.40;;;;;;;;;;2058417;28;20030;-72
2024/01/06 05:48:14;;;;;;;3.40;2.92;;;;;;;;;;2054362;28;20042;-72
2024/01/06 05:49:36;;;;;;;3.15;2.80;;;;;;;;;;2050518;28;20030;-73
2024/01/06 05:50:56;;;;;;;3.13;2.58;;;;;;;;;;2052324;28;20035;-72
2024/01/06 05:52:15;;;;;;;2.83;2.63;;;;;;;;;;2050969;28;20434;-74
2024/01/06 05:53:36;;;;;;;2.80;2.60;;;;;;;;;;2061050;28;20035;-72
2024/01/06 05:54:58;;;;;;;3.58;2.80;;;;;;;;;;2052647;28;20086;-72
2024/01/06 05:56:26;;;;;;;3.13;2.65;;;;;;;;;;2050894;28;20031;-73
2024/01/06 05:57:45;;;;;;;2.75;2.55;;;;;;;;;;2061854;28;20038;-72
2024/01/06 05:59:04;;;;;;;2.58;2.25;;;;;;;;;;2052894;28;20039;-73
2024/01/06 06:00:23;;;;;;;3.03;2.72;;;;;;;;;;2058620;28;20133;-73
2024/01/06 06:01:43;;;;;;;3.88;2.58;;;;;;;;;;2060836;28;20020;-74
2024/01/06 06:03:02;;;;;;;3.00;2.72;;;;;;;;;;2064729;28;20034;-73
2024/01/06 06:04:21;;;;;;;3.47;2.47;;;;;;;;;;2064123;28;20034;-73
2024/01/06 06:05:40;;;;;;;2.92;2.70;;;;;;;;;;2060184;28;20030;-74
2024/01/06 06:06:59;;;;;;;2.83;2.63;;;;;;;;;;2059344;28;20035;-73
2024/01/06 06:08:18;;;;;;;3.15;2.72;;;;;;;;;;2060638;28;20027;-72
2024/01/06 06:09:39;;;;;;;3.13;2.83;;;;;;;;;;2059105;28;20031;-72
2024/01/06 06:11:01;;;;;;;3.55;2.55;;;;;;;;;;2053561;28;20039;-73
2024/01/06 06:12:20;;;;;;;3.10;2.90;;;;;;;;;;2058010;28;20031;-73
2024/01/06 06:13:40;;;;;;;3.17;2.65;;;;;;;;;;2059684;28;20030;-75
2024/01/06 06:15:00;;;;;;;2.92;2.72;;;;;;;;;;2060334;28;20039;-73
2024/01/06 06:16:19;;;;;;;2.85;2.65;;;;;;;;;;2061148;28;20113;-73
2024/01/06 06:17:38;;;;;;;3.25;2.95;;;;;;;;;;2063324;28;20034;-73
2024/01/06 06:18:58;;;;;;;5.10;3.00;;;;;;;;;;2059909;28;20030;-74
2024/01/06 06:20:16;;;;;;;3.22;2.92;;;;;;;;;;2055840;28;20042;-73
2024/01/06 06:21:36;;;;;;;3.60;3.30;;;;;;;;;;2059127;28;20031;-74
2024/01/06 06:22:55;;;;;;;3.25;2.65;;;;;;;;;;2058906;28;20031;-73
2024/01/06 06:24:13;;;;;;;3.47;3.17;;;;;;;;;;2054018;28;21528;-73
2024/01/06 06:25:39;;;;;;;3.05;2.83;;;;;;;;;;2057960;28;20039;-73
2024/01/06 06:26:58;;;;;;;2.95;2.65;;;;;;;;;;2058418;28;20388;-73
2024/01/06 06:28:18;;;;;;;2.95;2.70;;;;;;;;;;2048954;28;20039;-73
2024/01/06 06:29:37;;;;;;;2.92;2.72;;;;;;;;;;2058105;28;20081;-73
2024/01/06 06:30:56;;;;;;;3.08;2.78;;;;;;;;;;2053957;28;20039;-73
2024/01/06 06:32:15;;;;;;;3.47;2.80;;;;;;;;;;2057750;28;20034;-73
2024/01/06 06:33:34;;;;;;;4.85;2.72;;;;;;;;;;2053479;28;20023;-72
2024/01/06 06:34:53;;;;;;;2.85;2.65;;;;;;;;;;2050891;28;20515;-73
2024/01/06 06:36:12;;;;;;;2.85;2.65;;;;;;;;;;2057631;28;20051;-75
2024/01/06 06:37:31;;;;;;;3.10;2.80;;;;;;;;;;2061301;28;20430;-73
2024/01/06 06:38:50;;;;;;;3.28;3.00;;;;;;;;;;2060540;28;20035;-73
2024/01/06 06:40:09;;;;;;;3.15;2.83;;;;;;;;;;2051168;28;20451;-73
2024/01/06 06:41:28;;;;;;;5.40;2.92;;;;;;;;;;2057094;28;20134;-73
2024/01/06 06:42:47;;;;;;;5.40;2.85;;;;;;;;;;2052609;28;20519;-73
2024/01/06 06:44:06;;;;;;;3.20;2.90;;;;;;;;;;2057597;28;20026;-75
2024/01/06 06:45:25;;;;;;;3.25;2.95;;;;;;;;;;2051458;28;20019;-73
2024/01/06 06:46:44;;;;;;;3.17;2.90;;;;;;;;;;2057883;28;20502;-73
2024/01/06 06:48:03;;;;;;;4.22;2.67;;;;;;;;;;2060393;28;20031;-73
2024/01/06 06:49:23;;;;;;;3.47;2.88;;;;;;;;;;2051872;28;20054;-73
2024/01/06 06:50:41;;;;;;;3.55;3.25;;;;;;;;;;2053943;28;20031;-72
2024/01/06 06:52:02;;;;;;;3.85;2.90;;;;;;;;;;2057454;28;20031;-75
2024/01/06 06:53:24;;;;;;;3.47;3.17;;;;;;;;;;2052748;28;20051;-73
2024/01/06 06:54:43;;;;;;;6.07;3.08;;;;;;;;;;2059127;28;20039;-74
2024/01/06 06:56:02;;;;;;;3.35;3.05;;;;;;;;;;2060204;28;20030;-74
2024/01/06 06:57:22;;;;;;;3.05;2.67;;;;;;;;;;2051634;28;20031;-74
2024/01/06 06:58:41;;;;;;;3.67;2.92;;;;;;;;;;2048668;28;20031;-74
2024/01/06 07:00:00;;;;;;;3.28;2.97;;;;;;;;;;2064884;28;20034;-74
2024/01/06 07:01:19;;;;;;;3.00;2.80;;;;;;;;;;2057169;28;20052;-74
2024/01/06 07:02:38;;;;;;;3.15;2.95;;;;;;;;;;2054155;28;20031;-74
2024/01/06 07:03:57;;;;;;;2.97;2.63;;;;;;;;;;2057738;28;20031;-73
2024/01/06 07:05:17;;;;;;;3.33;3.03;;;;;;;;;;2061156;28;20034;-74
2024/01/06 07:06:36;;;;;;;3.22;2.92;;;;;;;;;;2052699;28;20023;-73
2024/01/06 07:07:55;;;;;;;3.10;2.83;;;;;;;;;;2049755;28;20039;-76
2024/01/06 07:09:14;;;;;;;2.90;2.70;;;;;;;;;;2049794;28;20035;-74
2024/01/06 07:10:33;;;;;;;3.30;3.00;;;;;;;;;;2055734;28;20047;-73
2024/01/06 07:11:52;;;;;;;3.35;3.05;;;;;;;;;;2058464;28;20043;-76
2024/01/06 07:13:11;;;;;;;3.42;3.13;;;;;;;;;;2061490;28;20043;-74
2024/01/06 07:14:30;;;;;;;2.83;2.63;;;;;;;;;;2058300;28;20039;-74
2024/01/06 07:15:49;;;;;;;3.03;2.70;;;;;;;;;;2059464;28;20034;-74
2024/01/06 07:17:08;;;;;;;4.45;2.75;;;;;;;;;;2060139;28;20041;-74
2024/01/06 07:18:28;;;;;;;3.50;3.20;;;;;;;;;;2059579;28;20035;-76
2024/01/06 07:19:48;;;;;;;3.17;2.90;;;;;;;;;;2058186;28;20039;-74
2024/01/06 07:21:07;;;;;;;3.30;2.92;;;;;;;;;;2050686;28;20560;-75
2024/01/06 07:22:26;;;;;;;3.80;3.50;;;;;;;;;;2058273;28;20380;-74
2024/01/06 07:23:45;;;;;;;3.03;2.80;;;;;;;;;;2061420;28;20163;-75
2024/01/06 07:25:05;;;;;;;7.63;3.22;;;;;;;;;;2052943;28;20507;-75
2024/01/06 07:26:24;;;;;;;3.40;3.00;;;;;;;;;;2056340;28;20117;-74
2024/01/06 07:27:46;;;;;;;5.13;2.60;;;;;;;;;;2060627;28;20030;-74
2024/01/06 07:29:05;;;;;;;3.58;2.80;;;;;;;;;;2051521;28;20467;-74
2024/01/06 07:30:23;;;;;;;2.90;2.70;;;;;;;;;;2057540;28;20042;-76
2024/01/06 07:31:42;;;;;;;3.42;3.13;;;;;;;;;;2051385;28;20035;-75
2024/01/06 07:33:02;;;;;;;3.00;2.80;;;;;;;;;;2057322;28;20931;-75
2024/01/06 07:34:21;;;;;;;3.83;2.97;;;;;;;;;;2050454;28;20043;-74
2024/01/06 07:35:43;;;;;;;3.03;2.80;;;;;;;;;;2048960;28;20038;-74
2024/01/06 07:37:02;;;;;;;3.33;3.03;;;;;;;;;;2050158;28;20042;-74
2024/01/06 07:38:21;;;;;;;4.18;2.90;;;;;;;;;;2055901;28;20503;-74
2024/01/06 07:39:41;;;;;;;3.42;2.92;;;;;;;;;;2059015;28;20038;-74
2024/01/06 07:40:59;;;;;;;3.03;2.78;;;;;;;;;;2059033;28;20031;-74
2024/01/06 07:42:18;;;;;;;3.05;2.85;;;;;;;;;;2058969;28;20043;-77
2024/01/06 07:43:37;;;;;;;2.72;2.53;;;;;;;;;;2061127;28;20034;-76
2024/01/06 07:44:56;;;;;;;3.05;2.80;;;;;;;;;;2061852;28;20483;-75
2024/01/06 07:46:15;;;;;;;3.10;2.88;;;;;;;;;;2059998;28;20118;-76
2024/01/06 07:47:34;;;;;;;2.88;2.67;;;;;;;;;;2059760;28;20034;-75
2024/01/06 07:48:53;;;;;;;5.40;3.20;;;;;;;;;;2051585;28;21771;-76
2024/01/06 07:50:12;;;;;;;3.58;3.00;;;;;;;;;;2048659;28;20047;-75
2024/01/06 07:51:31;;;;;;;3.30;3.00;;;;;;;;;;2055936;28;20039;-74
2024/01/06 07:52:50;;;;;;;3.55;2.90;;;;;;;;;;2050595;28;20028;-74
2024/01/06 07:54:11;;;;;;;4.95;2.70;;;;;;;;;;2048856;28;20034;-74
2024/01/06 07:55:30;;;;;;;3.40;3.10;;;;;;;;;;2062527;28;20038;-74